Terminal Aerodrome Forecast
Issued by NWS

Home | Current Version | Previous Version | Text Only | Print | Product List | Glossary On
Versions: 1 2 3 4 5 6 7 8 9 10 11 12
000
FTUS46 KMTR 260500
TAFSTS
TAF
KSTS 260527Z 2606/2706 VRB03KT P6SM SKC
     FM261000 00000KT 2SM BR FEW001
      TEMPO 2612/2616 1/2SM FG VV001
     FM261700 19004KT P6SM SKC
     FM270300 VRB03KT P6SM SKC=

USA.gov is the U.S. government's official web portal to all federal, state and local government web resources and services.